KXNA/XNA METAR and TAF weather

Enter ICAO airport designator
Station Type Date Time Source
KXNA METAR 2022/12/04 04:53 UTC NOAA

KXNA 040453Z AUTO 03004KT 10SM CLR 01/M06 A3041 RMK AO2 SLP304 T00061056


Station Type Date Time Source
KXNA Decoded METAR 2022/12/04 04:53 UTC NOAA

NORTHWEST ARKANSAS REGIONAL, AR, United States (KXNA) 36-17N 94-18W
Dec 03, 2022 - 11:53 PM EST / 2022.12.04 0453 UTC
Wind: from the NNE (030 degrees) at 5 MPH (4 KT):0
Visibility: 10 mile(s):0
Sky conditions: clear
Temperature: 33.1 F (0.6 C)
Windchill: 28 F (-2 C):1
Dew Point: 21.9 F (-5.6 C)
Relative Humidity: 63%
Pressure (altimeter): 30.41 in. Hg (1029 hPa)
ob: KXNA 040453Z AUTO 03004KT 10SM CLR 01/M06 A3041 RMK AO2 SLP304 T00061056
cycle: 5

Station Type Date Time Source
KXNA TAF 2022/12/04 06:20 UTC NOAA

TAF KXNA 040520Z 0406/0506 VRB03KT P6SM BKN250
FM041200 VRB05KT P6SM SCT040 OVC080
FM041600 18006KT P6SM OVC040
FM050000 17005KT P6SM SCT040 BKN100

Example: see airport list